Time;durP1;ratioP1;P1;durP2;ratioP2;P2;SDS_P1;SDS_P2;PMS_P1;PMS_P2;Temp;Humidity;BMP_temperature;BMP_pressure;BME280_temperature;BME280_humidity;BME280_pressure;Samples;Min_cycle;Max_cycle;Signal;HPM_P1;HPM_P2
2024/03/23 00:01:55;;;;;;;12.68;2.63;;;6.20;99.90;;;5.34;100.00;101797.13;4104036;28;20376;-70
2024/03/23 00:03:57;;;;;;;24.25;3.70;;;6.10;99.90;;;5.26;100.00;101801.13;4104122;28;20020;-70
2024/03/23 00:06:00;;;;;;;15.55;2.83;;;6.10;99.90;;;5.26;100.00;101801.97;4104117;28;20038;-70
2024/03/23 00:08:02;;;;;;;14.55;2.72;;;6.10;99.90;;;5.24;100.00;101809.09;4103646;28;20024;-69
2024/03/23 00:10:05;;;;;;;15.80;3.67;;;6.10;99.90;;;5.21;100.00;101809.28;4103959;28;20035;-69
2024/03/23 00:12:07;;;;;;;18.73;2.97;;;6.00;99.90;;;5.21;100.00;101796.19;4103804;28;20031;-69
2024/03/23 00:14:09;;;;;;;20.17;3.80;;;6.00;99.90;;;5.16;100.00;101794.81;4107041;28;20035;-69
2024/03/23 00:16:12;;;;;;;12.00;2.85;;;6.00;99.90;;;5.18;100.00;101799.00;4107049;28;20491;-70
2024/03/23 00:18:14;;;;;;;13.65;2.83;;;6.00;99.90;;;5.14;100.00;101800.13;4107314;28;20474;-70
2024/03/23 00:20:17;;;;;;;10.57;2.60;;;5.90;99.90;;;5.14;100.00;101794.88;4107197;28;20043;-70
2024/03/23 00:22:19;;;;;;;20.08;4.78;;;5.90;99.90;;;5.09;100.00;101804.81;4106793;28;20033;-70
2024/03/23 00:24:21;;;;;;;9.13;2.50;;;5.90;99.90;;;5.09;100.00;101820.50;4107165;28;20038;-70
2024/03/23 00:26:23;;;;;;;17.20;3.45;;;5.90;99.90;;;5.05;100.00;101824.22;4107125;28;20035;-70
2024/03/23 00:28:26;;;;;;;12.57;2.17;;;5.90;99.90;;;5.04;100.00;101822.56;4107069;28;20035;-70
2024/03/23 00:30:28;;;;;;;16.75;2.72;;;5.80;99.90;;;5.05;100.00;101832.06;4106497;28;20483;-70
2024/03/23 00:32:30;;;;;;;12.10;2.33;;;5.80;99.90;;;5.04;100.00;101819.94;4106941;28;20044;-70
2024/03/23 00:34:33;;;;;;;11.10;3.30;;;5.80;99.90;;;5.03;100.00;101826.09;4106933;28;20038;-70
2024/03/23 00:36:35;;;;;;;19.42;2.85;;;5.80;99.90;;;5.05;100.00;101823.41;4106848;28;20469;-70
2024/03/23 00:38:37;;;;;;;15.02;2.47;;;5.80;99.90;;;5.05;100.00;101824.22;4108944;28;20031;-69
2024/03/23 00:40:40;;;;;;;15.00;2.83;;;5.80;99.90;;;5.03;100.00;101829.56;4106855;29;20479;-70
2024/03/23 00:42:42;;;;;;;20.23;3.65;;;5.80;99.90;;;5.03;100.00;101833.94;4106667;29;20041;-70
2024/03/23 00:44:44;;;;;;;16.02;3.22;;;5.80;99.90;;;4.98;100.00;101829.00;4106784;28;20027;-70
2024/03/23 00:46:46;;;;;;;15.55;2.83;;;5.80;99.90;;;4.94;100.00;101826.66;4106652;28;20031;-70
2024/03/23 00:48:49;;;;;;;14.85;3.40;;;5.70;99.90;;;4.90;100.00;101822.53;4106767;28;20053;-70
2024/03/23 00:50:51;;;;;;;15.98;3.55;;;5.70;99.90;;;4.94;100.00;101832.72;4106780;28;20042;-70
2024/03/23 00:52:53;;;;;;;13.45;3.22;;;5.70;99.90;;;4.92;100.00;101831.16;4106353;28;20113;-70
2024/03/23 00:54:55;;;;;;;15.57;2.80;;;5.70;99.90;;;4.84;100.00;101830.75;4106562;28;20051;-70
2024/03/23 00:56:56;;;;;;;15.32;2.60;;;5.70;99.90;;;4.83;100.00;101829.09;4106398;29;20027;-70
2024/03/23 00:58:56;;;;;;;12.52;2.40;;;5.60;99.90;;;4.85;100.00;101824.59;4106679;29;20031;-70
2024/03/23 01:00:57;;;;;;;17.67;3.75;;;5.60;99.90;;;4.85;100.00;101832.44;4106567;29;20035;-70
2024/03/23 01:02:58;;;;;;;14.00;2.78;;;5.60;99.90;;;4.76;100.00;101820.78;4106343;29;20031;-70
2024/03/23 01:04:59;;;;;;;16.42;3.08;;;5.60;99.90;;;4.73;100.00;101833.19;4105222;29;20407;-70
2024/03/23 01:07:00;;;;;;;13.40;2.92;;;5.60;99.90;;;4.75;100.00;101833.94;4106388;28;20031;-70
2024/03/23 01:09:01;;;;;;;12.15;2.95;;;5.60;99.90;;;4.75;100.00;101826.09;4106469;29;20039;-70
2024/03/23 01:11:02;;;;;;;17.30;3.97;;;5.50;99.90;;;4.70;100.00;101820.28;4106161;29;20038;-70
2024/03/23 01:13:03;;;;;;;9.02;2.55;;;5.50;99.90;;;4.69;100.00;101829.09;4106214;29;20391;-70
2024/03/23 01:15:04;;;;;;;9.98;2.50;;;5.50;99.90;;;4.68;100.00;101830.00;4106393;29;20032;-70
2024/03/23 01:17:05;;;;;;;13.65;2.65;;;5.50;99.90;;;4.67;100.00;101829.16;4106225;29;20042;-70
2024/03/23 01:19:06;;;;;;;18.08;3.30;;;5.50;99.90;;;4.72;100.00;101834.13;4106173;29;20023;-70
2024/03/23 01:21:07;;;;;;;11.52;2.67;;;5.50;99.90;;;4.71;100.00;101845.50;4106150;28;20027;-70
2024/03/23 01:23:08;;;;;;;12.70;2.65;;;5.50;99.90;;;4.67;100.00;101847.47;4105702;28;20031;-70
2024/03/23 01:25:09;;;;;;;17.63;3.55;;;5.50;99.90;;;4.62;100.00;101839.06;4120823;28;20071;-69
2024/03/23 01:27:10;;;;;;;11.77;2.65;;;5.50;99.90;;;4.66;100.00;101831.88;4104872;29;20102;-69
2024/03/23 01:29:11;;;;;;;18.58;2.80;;;5.50;99.90;;;4.65;100.00;101840.66;4120934;28;20031;-69
2024/03/23 01:31:12;;;;;;;14.85;4.25;;;5.40;99.90;;;4.64;100.00;101839.81;4104864;29;20082;-69
2024/03/23 01:33:12;;;;;;;16.48;2.80;;;5.40;99.90;;;4.66;100.00;101839.72;4105896;28;20047;-70
2024/03/23 01:35:13;;;;;;;16.65;4.43;;;5.40;99.90;;;4.66;100.00;101837.13;4105821;29;20023;-69
2024/03/23 01:37:14;;;;;;;14.60;3.50;;;5.40;99.90;;;4.66;100.00;101848.38;4105826;29;20035;-69
2024/03/23 01:39:15;;;;;;;14.55;3.00;;;5.40;99.90;;;4.74;100.00;101850.56;4105771;29;20027;-69
2024/03/23 01:41:16;;;;;;;14.73;3.17;;;5.50;99.90;;;4.69;100.00;101857.84;4105872;29;20527;-70
2024/03/23 01:43:16;;;;;;;15.25;3.72;;;5.50;99.90;;;4.68;100.00;101850.91;4105809;28;20475;-70
2024/03/23 01:45:17;;;;;;;11.43;2.10;;;5.50;99.90;;;4.66;100.00;101858.03;4105892;29;20031;-70
2024/03/23 01:47:18;;;;;;;15.60;2.30;;;5.50;99.90;;;4.66;100.00;101852.78;4105832;29;20031;-69
2024/03/23 01:49:20;;;;;;;14.68;2.35;;;5.40;99.90;;;4.69;100.00;101852.59;4105797;29;20036;-70
2024/03/23 01:51:21;;;;;;;20.33;3.65;;;5.50;99.90;;;4.68;100.00;101850.91;4104548;29;20059;-70
2024/03/23 01:53:23;;;;;;;18.80;2.67;;;5.50;99.90;;;4.61;100.00;101839.13;4105445;28;20027;-69
2024/03/23 01:55:24;;;;;;;11.98;2.88;;;5.40;99.90;;;4.63;100.00;101852.97;4104428;29;20066;-69
2024/03/23 01:57:24;;;;;;;17.60;2.92;;;5.40;99.90;;;4.58;100.00;101839.31;4120439;28;20507;-70
2024/03/23 01:59:25;;;;;;;12.45;2.92;;;5.40;99.90;;;4.64;100.00;101846.78;4104466;29;20043;-69
2024/03/23 02:01:26;;;;;;;20.85;3.10;;;5.40;99.90;;;4.64;100.00;101854.63;4105387;29;20050;-69
2024/03/23 02:03:28;;;;;;;8.23;2.17;;;5.40;99.90;;;4.62;100.00;101833.00;4105620;29;20384;-70
2024/03/23 02:05:29;;;;;;;11.60;2.30;;;5.40;99.90;;;4.61;100.00;101846.97;4104403;29;20036;-71
2024/03/23 02:07:30;;;;;;;16.00;3.25;;;5.40;99.90;;;4.58;100.00;101841.94;4088169;29;20032;-70
2024/03/23 02:09:31;;;;;;;12.30;2.80;;;5.40;99.90;;;4.55;100.00;101839.50;4105999;28;20426;-70
2024/03/23 02:11:32;;;;;;;10.32;2.60;;;5.40;99.90;;;4.52;100.00;101837.06;4093836;29;20476;-70
2024/03/23 02:13:33;;;;;;;14.98;3.10;;;5.30;99.90;;;4.50;100.00;101846.78;4120417;28;20082;-70
2024/03/23 02:15:34;;;;;;;12.40;2.20;;;5.30;99.90;;;4.58;100.00;101844.53;4104184;29;20027;-70
2024/03/23 02:17:35;;;;;;;11.73;3.08;;;5.30;99.90;;;4.60;100.00;101842.69;4105292;29;20078;-70
2024/03/23 02:19:38;;;;;;;12.48;2.42;;;5.30;99.90;;;4.58;100.00;101839.31;4105462;28;20023;-70
2024/03/23 02:21:38;;;;;;;16.52;2.20;;;5.30;99.90;;;4.66;100.00;101837.94;4104148;28;20031;-70
2024/03/23 02:23:39;;;;;;;10.00;3.00;;;5.40;99.90;;;4.67;100.00;101846.59;4105145;28;20487;-70
2024/03/23 02:25:40;;;;;;;11.35;2.92;;;5.40;99.90;;;4.65;100.00;101838.88;4076461;29;20401;-69
2024/03/23 02:27:41;;;;;;;13.13;3.40;;;5.40;99.90;;;4.70;100.00;101849.88;4103854;29;20027;-69
2024/03/23 02:29:42;;;;;;;14.65;2.50;;;5.40;99.90;;;4.74;100.00;101840.09;4105263;28;20521;-70
2024/03/23 02:31:43;;;;;;;17.42;3.75;;;5.50;99.90;;;4.79;100.00;101856.34;4104453;29;20030;-70
2024/03/23 02:33:43;;;;;;;7.72;2.05;;;5.50;99.90;;;4.72;100.00;101847.19;4104969;29;20042;-70
2024/03/23 02:35:46;;;;;;;12.50;1.95;;;5.50;99.90;;;4.65;100.00;101848.47;4104607;28;20024;-69
2024/03/23 02:37:48;;;;;;;15.93;3.55;;;5.50;99.90;;;4.69;100.00;101858.66;4103783;29;20411;-70
2024/03/23 02:39:49;;;;;;;15.93;2.30;;;5.50;99.90;;;4.64;100.00;101858.09;4105170;29;20027;-70
2024/03/23 02:41:50;;;;;;;11.48;2.40;;;5.50;99.90;;;4.63;100.00;101855.59;4104949;29;20377;-70
2024/03/23 02:43:51;;;;;;;9.77;2.50;;;5.40;99.90;;;4.64;100.00;101847.63;4105058;29;20094;-69
2024/03/23 02:45:52;;;;;;;12.57;2.40;;;5.40;99.90;;;4.63;100.00;101855.59;4105099;29;20373;-70
2024/03/23 02:47:53;;;;;;;15.10;2.97;;;5.40;99.90;;;4.64;100.00;101852.03;4105051;28;20023;-69
2024/03/23 02:49:55;;;;;;;16.77;3.00;;;5.40;99.90;;;4.68;100.00;101854.38;4104911;29;20031;-70
2024/03/23 02:51:56;;;;;;;15.52;3.25;;;5.40;99.90;;;4.63;100.00;101861.63;4094140;29;20509;-69
2024/03/23 02:53:57;;;;;;;8.38;1.98;;;5.40;99.90;;;4.58;100.00;101850.63;4104922;29;20035;-70
2024/03/23 02:55:58;;;;;;;11.45;2.42;;;5.40;99.90;;;4.55;100.00;101852.56;4104852;29;20027;-70
2024/03/23 02:58:01;;;;;;;14.77;2.30;;;5.40;99.90;;;4.57;100.00;101850.72;4103623;29;20039;-70
2024/03/23 03:00:03;;;;;;;10.88;2.45;;;5.40;99.90;;;4.59;100.00;101859.31;4104661;28;20019;-69
2024/03/23 03:02:05;;;;;;;13.70;2.30;;;5.40;99.90;;;4.61;100.00;101854.81;4103736;29;20055;-70
2024/03/23 03:04:05;;;;;;;13.43;2.22;;;5.40;99.90;;;4.61;100.00;101860.88;4104804;29;20106;-69
2024/03/23 03:06:06;;;;;;;8.52;1.58;;;5.40;99.90;;;4.70;100.00;101854.28;4104605;29;20034;-69
2024/03/23 03:08:07;;;;;;;11.30;1.83;;;5.40;99.90;;;4.68;100.00;101853.53;4104478;29;20023;-69
2024/03/23 03:10:11;;;;;;;19.75;2.78;;;5.50;99.90;;;4.66;100.00;101848.38;4103453;29;20038;-69
2024/03/23 03:12:11;;;;;;;14.77;2.58;;;5.50;99.90;;;4.65;100.00;101862.41;4103293;29;20023;-69
2024/03/23 03:14:12;;;;;;;7.40;2.17;;;5.40;99.90;;;4.62;100.00;101852.13;4118942;28;20523;-69
2024/03/23 03:16:14;;;;;;;12.00;2.40;;;5.40;99.90;;;4.66;100.00;101858.03;4104470;28;20027;-69
2024/03/23 03:18:15;;;;;;;13.38;2.40;;;5.40;99.90;;;4.66;100.00;101852.78;4104542;29;20031;-69
2024/03/23 03:20:17;;;;;;;12.13;2.55;;;5.50;99.90;;;4.75;100.00;101850.44;4104435;29;20510;-69
2024/03/23 03:22:18;;;;;;;11.85;2.08;;;5.50;99.90;;;4.86;100.00;101849.81;4102848;28;20023;-69
2024/03/23 03:24:19;;;;;;;12.30;1.90;;;5.60;99.90;;;4.89;100.00;101852.25;4104425;29;20019;-69
2024/03/23 03:26:20;;;;;;;12.13;3.20;;;5.70;99.90;;;5.00;100.00;101849.81;4103270;29;20069;-69
2024/03/23 03:28:21;;;;;;;11.50;1.83;;;5.80;99.90;;;5.04;100.00;101846.09;4104499;29;20483;-69
2024/03/23 03:30:21;;;;;;;9.70;3.00;;;5.80;99.90;;;5.00;100.00;101857.66;4104328;29;20027;-69
2024/03/23 03:32:22;;;;;;;9.63;2.67;;;5.80;99.90;;;4.97;100.00;101847.38;4104048;29;20035;-69
2024/03/23 03:34:23;;;;;;;9.98;3.00;;;5.80;99.90;;;4.92;100.00;101859.91;4104401;29;20031;-70
2024/03/23 03:36:24;;;;;;;10.43;2.13;;;5.80;99.90;;;4.89;100.00;101870.56;4103158;29;20047;-70
2024/03/23 03:38:25;;;;;;;13.00;2.88;;;5.70;99.90;;;4.78;100.00;101863.34;4086804;29;20104;-70
2024/03/23 03:40:25;;;;;;;11.88;2.90;;;5.60;99.90;;;4.71;100.00;101866.41;4102463;29;20035;-69
2024/03/23 03:42:26;;;;;;;12.90;1.95;;;5.60;99.90;;;4.75;100.00;101860.91;4104112;28;20483;-69
2024/03/23 03:44:27;;;;;;;10.48;2.50;;;5.60;99.90;;;4.69;100.00;101863.06;4104178;29;20023;-69
2024/03/23 03:46:28;;;;;;;9.27;3.10;;;5.50;99.90;;;4.73;100.00;101859.31;4103932;28;20031;-69
2024/03/23 03:48:29;;;;;;;7.78;2.22;;;5.50;99.90;;;4.71;100.00;101863.81;4102152;29;20054;-70
2024/03/23 03:50:30;;;;;;;10.50;2.42;;;5.50;99.90;;;4.68;100.00;101858.75;4104293;28;20403;-69
2024/03/23 03:52:31;;;;;;;9.60;2.00;;;5.50;99.90;;;4.66;100.00;101863.25;4103830;29;20496;-69
2024/03/23 03:54:33;;;;;;;11.75;2.88;;;5.50;99.90;;;4.67;100.00;101870.13;4104027;29;20031;-69
2024/03/23 03:56:34;;;;;;;13.02;2.65;;;5.40;99.90;;;4.65;100.00;101872.84;4102669;29;20042;-69
2024/03/23 03:58:35;;;;;;;5.50;1.30;;;5.40;99.90;;;4.73;100.00;101867.16;4102912;29;20027;-69
2024/03/23 04:00:36;;;;;;;6.72;2.05;;;5.50;99.90;;;4.73;100.00;101869.78;4104139;29;20015;-69
2024/03/23 04:02:38;;;;;;;15.25;2.42;;;5.50;99.90;;;4.72;100.00;101875.94;4103911;28;20031;-69
2024/03/23 04:04:39;;;;;;;11.60;2.10;;;5.50;99.90;;;4.79;100.00;101866.78;4103878;28;20024;-70
2024/03/23 04:06:40;;;;;;;7.82;1.42;;;5.50;99.90;;;4.97;100.00;101868.31;4103748;29;20031;-69
2024/03/23 04:08:40;;;;;;;10.27;2.28;;;5.60;99.90;;;5.10;100.00;101874.47;4102731;29;20035;-69
2024/03/23 04:10:41;;;;;;;12.70;2.20;;;5.70;99.90;;;5.21;100.00;101864.19;4103857;29;20090;-69
2024/03/23 04:12:44;;;;;;;12.57;2.05;;;5.80;99.90;;;5.15;100.00;101856.72;4103680;29;20069;-69
2024/03/23 04:14:45;;;;;;;9.65;2.28;;;5.90;99.90;;;5.04;100.00;101859.16;4102866;29;20111;-70
2024/03/23 04:16:46;;;;;;;6.55;1.52;;;5.80;99.90;;;5.01;100.00;101860.19;4103877;29;20031;-69
2024/03/23 04:18:47;;;;;;;6.30;0.95;;;5.80;99.90;;;4.94;100.00;101858.03;4103922;29;20035;-70
2024/03/23 04:20:51;;;;;;;7.65;2.25;;;5.80;99.90;;;4.90;100.00;101864.38;4103739;28;20035;-69
2024/03/23 04:22:53;;;;;;;;;;;5.70;99.90;;;4.78;100.00;101860.72;4102822;29;20471;-69
2024/03/23 04:24:56;;;;;;;7.07;1.10;;;5.70;99.90;;;4.74;100.00;101855.78;4102878;29;20005;-69
2024/03/23 04:26:57;;;;;;;8.43;1.52;;;5.60;99.90;;;4.70;100.00;101860.34;4102644;29;20083;-69
2024/03/23 04:28:58;;;;;;;6.25;1.55;;;5.60;99.90;;;4.65;100.00;101864.16;4103313;29;20023;-69
2024/03/23 04:31:04;;;;;;;6.90;1.48;;;5.50;99.90;;;4.62;100.00;101864.34;4103816;29;20034;-69
2024/03/23 04:33:05;;;;;;;8.77;1.13;;;5.40;99.90;;;4.58;100.00;101860.22;4102388;29;20055;-70
2024/03/23 04:35:09;;;;;;;10.00;1.55;;;5.40;99.90;;;4.56;100.00;101864.72;4102589;29;20028;-70
2024/03/23 04:37:10;;;;;;;6.55;2.53;;;5.40;99.90;;;4.56;100.00;101864.72;4102944;28;20035;-70
2024/03/23 04:39:11;;;;;;;9.57;1.42;;;5.40;99.90;;;4.58;100.00;101870.66;4101714;29;20031;-70
2024/03/23 04:41:12;;;;;;;7.90;1.92;;;5.40;99.90;;;4.54;100.00;101858.75;4102583;29;20027;-70
2024/03/23 04:43:12;;;;;;;4.95;1.67;;;5.40;99.90;;;4.55;100.00;101865.63;4103607;29;20027;-69
2024/03/23 04:45:14;;;;;;;5.40;1.15;;;5.30;99.90;;;4.58;100.00;101868.06;4103727;29;20027;-69
2024/03/23 04:47:15;;;;;;;8.20;1.58;;;5.40;99.90;;;4.59;100.00;101867.13;4103770;29;20036;-70
2024/03/23 04:49:16;;;;;;;9.05;1.40;;;5.40;99.90;;;4.56;100.00;101869.94;4103678;29;20038;-69
2024/03/23 04:51:26;;;;;;;8.82;2.08;;;5.40;99.90;;;4.51;100.00;101870.19;4102514;29;20530;-69
2024/03/23 04:53:29;;;;;;;6.57;1.38;;;5.30;99.90;;;4.49;100.00;101874.66;4099048;29;20046;-70
2024/03/23 04:55:31;;;;;;;5.47;1.17;;;5.30;99.90;;;4.42;100.00;101863.72;4094321;29;20444;-69
2024/03/23 04:57:32;;;;;;;8.63;1.40;;;5.20;99.90;;;4.41;100.00;101858.59;4102598;28;20095;-70
2024/03/23 04:59:33;;;;;;;9.52;2.65;;;5.20;99.90;;;4.42;100.00;101861.13;4105680;28;20023;-69
2024/03/23 05:01:34;;;;;;;6.07;2.05;;;5.20;99.90;;;4.39;100.00;101866.53;4106183;28;20035;-70
2024/03/23 05:03:35;;;;;;;11.73;1.77;;;5.20;99.90;;;4.36;100.00;101871.09;4121449;28;20041;-69
2024/03/23 05:05:35;;;;;;;8.90;1.80;;;5.20;99.90;;;4.33;100.00;101877.31;4105384;29;20035;-70
2024/03/23 05:07:37;;;;;;;6.07;1.50;;;5.10;99.90;;;4.32;100.00;101877.41;4105999;28;20039;-70
2024/03/23 05:09:38;;;;;;;11.77;1.58;;;5.10;99.90;;;4.30;100.00;101867.06;4106305;29;20036;-70
2024/03/23 05:11:39;;;;;;;12.48;1.45;;;5.10;99.90;;;4.30;100.00;101887.94;4106326;29;20124;-69
2024/03/23 05:13:40;;;;;;;7.95;1.60;;;5.10;99.90;;;4.25;100.00;101879.53;4105090;29;20113;-69
2024/03/23 05:15:40;;;;;;;10.93;1.80;;;5.00;99.90;;;4.22;100.00;101887.56;4106273;28;20035;-69
2024/03/23 05:17:41;;;;;;;17.90;2.28;;;5.00;99.90;;;4.16;100.00;101874.84;4106208;29;20419;-69
2024/03/23 05:19:42;;;;;;;7.97;1.58;;;5.00;99.90;;;4.14;100.00;101875.88;4106306;29;20446;-69
2024/03/23 05:21:43;;;;;;;14.38;1.90;;;4.90;99.90;;;4.11;100.00;101876.88;4105990;28;20028;-69
2024/03/23 05:23:44;;;;;;;13.10;2.78;;;4.90;99.90;;;4.09;100.00;101878.72;4121094;28;20031;-69
2024/03/23 05:25:44;;;;;;;15.38;3.30;;;4.90;99.90;;;4.07;100.00;101875.38;4106067;28;20062;-69
2024/03/23 05:27:45;;;;;;;10.73;2.88;;;4.90;99.90;;;4.05;100.00;101864.19;4106182;29;20046;-69
2024/03/23 05:29:47;;;;;;;15.98;4.78;;;4.90;99.90;;;4.03;100.00;101870.41;4105108;29;20106;-69
2024/03/23 05:31:52;;;;;;;11.02;4.80;;;4.80;99.90;;;4.02;100.00;101866.97;4105823;28;20042;-70
2024/03/23 05:33:53;;;;;;;13.13;4.68;;;4.80;99.90;;;4.02;100.00;101863.50;4120828;28;20035;-69
2024/03/23 05:36:02;;;;;;;15.07;4.90;;;4.80;99.90;;;3.99;100.00;101861.91;4106016;29;20098;-70
2024/03/23 05:38:03;;;;;;;19.40;4.60;;;4.80;99.90;;;4.01;100.00;101859.19;4104534;29;20070;-70
2024/03/23 05:40:04;;;;;;;13.27;4.80;;;4.80;99.90;;;3.97;100.00;101868.16;4106032;28;20034;-69
2024/03/23 05:42:05;;;;;;;16.55;3.70;;;4.80;99.90;;;3.91;100.00;101861.50;4105593;29;20023;-70
2024/03/23 05:44:06;;;;;;;11.50;3.72;;;4.70;99.90;;;3.96;100.00;101875.13;4105744;29;20403;-70
2024/03/23 05:46:10;;;;;;;14.25;4.57;;;4.70;99.90;;;3.92;100.00;101874.47;4105999;29;20023;-70
2024/03/23 05:48:11;;;;;;;12.13;4.05;;;4.70;99.90;;;3.95;100.00;101880.41;4105915;29;20035;-69
2024/03/23 05:50:12;;;;;;;16.52;3.78;;;4.70;99.90;;;3.94;100.00;101881.38;4104738;29;20046;-69
2024/03/23 05:52:13;;;;;;;11.15;2.90;;;4.70;99.90;;;3.96;100.00;101887.34;4105624;28;20106;-69
2024/03/23 05:54:14;;;;;;;13.82;4.15;;;4.70;99.90;;;3.95;100.00;101886.50;4120768;28;20041;-69
2024/03/23 05:56:20;;;;;;;18.45;4.18;;;4.70;99.90;;;3.92;100.00;101882.28;4105650;28;20032;-69
2024/03/23 05:58:20;;;;;;;11.02;3.22;;;4.70;99.90;;;4.00;100.00;101892.31;4104463;29;20062;-69
2024/03/23 06:00:21;;;;;;;17.02;2.35;;;4.80;99.90;;;4.03;100.00;101886.06;4104569;29;20028;-69
2024/03/23 06:02:24;;;;;;;14.52;3.15;;;4.80;99.90;;;4.04;100.00;101883.38;4104464;29;20020;-69
2024/03/23 06:04:25;;;;;;;9.43;2.38;;;4.80;99.90;;;4.04;100.00;101870.31;4120445;28;20070;-69
2024/03/23 06:06:25;;;;;;;12.43;2.03;;;4.80;99.90;;;4.03;100.00;101886.94;4104457;29;20031;-69
2024/03/23 06:08:26;;;;;;;9.77;2.70;;;4.80;99.90;;;4.04;100.00;101892.97;4105380;28;20513;-69
2024/03/23 06:10:28;;;;;;;11.38;2.58;;;4.80;99.90;;;3.97;100.00;101891.63;4104543;28;20034;-69
2024/03/23 06:12:29;;;;;;;12.32;2.30;;;4.80;99.90;;;4.02;100.00;101882.63;4104149;29;20554;-69
2024/03/23 06:14:30;;;;;;;11.15;2.03;;;4.80;99.90;;;4.06;100.00;101898.97;4105361;28;20027;-69
2024/03/23 06:16:30;;;;;;;7.57;1.52;;;4.80;99.90;;;4.03;100.00;101902.59;4104231;29;20039;-69
2024/03/23 06:18:31;;;;;;;12.93;2.75;;;4.80;99.90;;;3.99;100.00;101888.00;4104256;29;20031;-69
2024/03/23 06:20:32;;;;;;;13.77;3.38;;;4.80;99.90;;;4.02;100.00;101893.06;4105542;28;20483;-69
2024/03/23 06:22:33;;;;;;;13.70;2.03;;;4.80;99.90;;;4.07;100.00;101888.41;4104919;28;20034;-69
2024/03/23 06:24:34;;;;;;;7.70;1.58;;;4.80;99.90;;;4.06;100.00;101891.94;4105357;29;20031;-69
2024/03/23 06:26:35;;;;;;;7.65;2.13;;;4.80;99.90;;;4.06;100.00;101884.13;4105241;29;20086;-69
2024/03/23 06:28:36;;;;;;;10.30;2.30;;;4.80;99.90;;;4.06;100.00;101897.16;4105182;29;20086;-69
2024/03/23 06:30:36;;;;;;;14.98;3.60;;;4.80;99.90;;;4.07;100.00;101890.19;4105052;29;20090;-69
2024/03/23 06:32:37;;;;;;;11.20;2.45;;;4.90;99.90;;;4.04;100.00;101893.81;4104996;29;20051;-70
2024/03/23 06:34:40;;;;;;;16.63;3.47;;;4.80;99.90;;;4.09;100.00;101894.38;4104756;29;20038;-69
2024/03/23 06:36:41;;;;;;;13.98;3.20;;;4.80;99.90;;;4.10;100.00;101892.63;4103667;29;20031;-69
2024/03/23 06:38:42;;;;;;;19.50;3.58;;;4.90;99.90;;;4.07;100.00;101875.38;4104925;29;20071;-70
2024/03/23 06:40:47;;;;;;;9.00;3.00;;;4.90;99.90;;;4.12;100.00;101877.72;4105229;29;20028;-69
2024/03/23 06:42:48;;;;;;;12.23;2.97;;;4.90;99.90;;;4.15;100.00;101893.22;4103861;29;20573;-69
2024/03/23 06:44:48;;;;;;;10.18;2.90;;;4.90;99.90;;;4.14;100.00;101884.53;4104511;28;20019;-69
2024/03/23 06:46:50;;;;;;;8.68;2.22;;;4.90;99.90;;;4.20;100.00;101889.41;4104871;28;20035;-69
2024/03/23 06:48:51;;;;;;;9.32;2.40;;;4.90;99.90;;;4.24;100.00;101885.69;4104994;28;20038;-69
2024/03/23 06:50:57;;;;;;;11.05;2.83;;;5.00;99.90;;;4.26;100.00;101883.00;4104956;28;20491;-69
2024/03/23 06:52:58;;;;;;;10.65;2.60;;;5.00;99.90;;;4.30;100.00;101885.34;4104620;28;20027;-69
2024/03/23 06:54:59;;;;;;;11.77;2.25;;;5.00;99.90;;;4.35;100.00;101890.31;4104887;28;20031;-69
2024/03/23 06:57:00;;;;;;;9.52;3.03;;;5.10;99.90;;;4.36;100.00;101887.59;4104795;29;20033;-69
2024/03/23 06:59:01;;;;;;;11.88;2.65;;;5.10;99.90;;;4.41;100.00;101887.34;4104843;29;20027;-69
2024/03/23 07:01:01;;;;;;;11.43;3.17;;;5.10;99.90;;;4.43;100.00;101896.78;4104742;29;20027;-69
2024/03/23 07:03:03;;;;;;;10.20;2.72;;;5.20;99.90;;;4.46;100.00;101893.13;4104560;29;20422;-69
2024/03/23 07:05:05;;;;;;;6.95;1.63;;;5.20;99.90;;;4.53;100.00;101897.09;4087703;29;20032;-69
2024/03/23 07:07:06;;;;;;;21.27;3.42;;;5.30;99.90;;;4.58;100.00;101886.34;4087407;29;20412;-69
2024/03/23 07:09:07;;;;;;;14.60;2.55;;;5.30;99.90;;;4.68;100.00;101897.97;4104634;28;20031;-70
2024/03/23 07:11:07;;;;;;;12.40;2.72;;;5.40;99.90;;;4.72;100.00;101891.63;4104377;29;20038;-69
2024/03/23 07:13:08;;;;;;;7.20;1.98;;;5.40;99.90;;;4.78;100.00;101886.84;4104397;29;20027;-69
2024/03/23 07:15:09;;;;;;;12.07;2.30;;;5.50;99.90;;;4.87;100.00;101893.31;4103153;29;20042;-69
2024/03/23 07:17:11;;;;;;;8.70;2.67;;;5.60;99.90;;;4.96;100.00;101892.75;4104475;28;20038;-69
2024/03/23 07:19:12;;;;;;;10.45;2.42;;;5.70;99.90;;;5.07;100.00;101900.81;4103395;29;20039;-69
2024/03/23 07:21:14;;;;;;;14.35;2.33;;;5.70;99.90;;;5.10;100.00;101903.25;4104298;28;20015;-70
2024/03/23 07:23:15;;;;;;;9.70;1.95;;;5.80;99.90;;;5.18;100.00;101903.63;4104209;29;20055;-69
2024/03/23 07:25:16;;;;;;;12.68;1.92;;;5.90;99.90;;;5.21;100.00;101898.19;4104445;29;20019;-69
2024/03/23 07:27:17;;;;;;;9.15;1.63;;;6.00;99.90;;;5.31;100.00;101903.72;4104251;29;20579;-69
2024/03/23 07:29:18;;;;;;;9.18;2.20;;;6.00;99.90;;;5.33;100.00;101900.06;4104507;29;20036;-69
2024/03/23 07:31:19;;;;;;;9.75;1.70;;;6.10;99.90;;;5.35;100.00;101905.19;4103221;29;20094;-69
2024/03/23 07:33:20;;;;;;;10.05;1.80;;;6.10;99.90;;;5.43;100.00;101910.81;4102794;29;20503;-69
2024/03/23 07:35:21;;;;;;;11.98;3.20;;;6.20;99.90;;;5.53;100.00;101919.75;4104203;28;20522;-69
2024/03/23 07:37:22;;;;;;;7.53;1.63;;;6.30;99.90;;;5.60;100.00;101913.22;4103995;28;20488;-69
2024/03/23 07:39:23;;;;;;;10.07;2.03;;;6.30;99.90;;;5.66;100.00;101905.00;4094240;29;20474;-69
2024/03/23 07:41:24;;;;;;;8.77;2.55;;;6.40;99.90;;;5.72;100.00;101899.38;4104172;29;20488;-70
2024/03/23 07:43:24;;;;;;;5.82;1.63;;;6.50;99.90;;;5.75;100.00;101903.56;4104047;29;20566;-69
2024/03/23 07:45:25;;;;;;;8.82;2.55;;;6.50;99.90;;;5.78;100.00;101908.59;4087137;29;20020;-70
2024/03/23 07:47:26;;;;;;;11.13;3.67;;;6.50;99.90;;;5.84;100.00;101906.44;4104379;29;20030;-69
2024/03/23 07:49:27;;;;;;;9.77;1.90;;;6.50;99.90;;;5.91;100.00;101912.19;4103888;28;20033;-69
2024/03/23 07:51:28;;;;;;;7.72;2.05;;;6.60;99.90;;;6.01;100.00;101911.47;4102599;29;20027;-70
2024/03/23 07:53:29;;;;;;;9.30;1.92;;;6.70;99.90;;;6.09;100.00;101913.63;4103953;29;20098;-70
2024/03/23 07:55:30;;;;;;;11.98;1.75;;;6.80;99.90;;;6.20;100.00;101916.38;4102846;29;20027;-70
2024/03/23 07:57:31;;;;;;;7.88;1.65;;;6.80;99.90;;;6.21;100.00;101910.22;4104121;29;20027;-70
2024/03/23 07:59:33;;;;;;;11.77;2.03;;;6.90;99.90;;;6.28;100.00;101905.38;4102899;29;20031;-70
2024/03/23 08:01:34;;;;;;;7.55;2.47;;;7.00;99.90;;;6.33;100.00;101909.38;4103861;29;20030;-70
2024/03/23 08:03:40;;;;;;;6.28;1.88;;;7.00;99.90;;;6.36;100.00;101906.56;4103924;29;20039;-69
2024/03/23 08:05:41;;;;;;;8.50;1.23;;;7.10;99.90;;;6.47;100.00;101909.34;4102857;29;20028;-70
2024/03/23 08:07:42;;;;;;;9.10;1.55;;;7.20;99.90;;;6.53;100.00;101908.09;4103655;29;20027;-69
2024/03/23 08:09:44;;;;;;;10.93;2.55;;;7.20;99.90;;;6.59;100.00;101891.97;4102858;29;20038;-70
2024/03/23 08:11:46;;;;;;;7.30;2.08;;;7.30;99.90;;;6.60;100.00;101893.66;4103895;29;20039;-70
2024/03/23 08:13:47;;;;;;;7.80;1.85;;;7.40;99.90;;;6.67;100.00;101895.75;4102694;29;20019;-70
2024/03/23 08:15:48;;;;;;;10.07;2.15;;;7.40;99.90;;;6.75;100.00;101897.03;4103728;29;20506;-70
2024/03/23 08:17:50;;;;;;;14.75;2.22;;;7.50;99.90;;;6.79;100.00;101890.59;4104054;29;20034;-69
2024/03/23 08:19:52;;;;;;;12.95;2.20;;;7.50;99.90;;;6.90;100.00;101890.75;4103023;29;20046;-69
2024/03/23 08:21:54;;;;;;;8.43;3.13;;;7.60;99.90;;;6.96;100.00;101888.50;4103547;28;20103;-69
2024/03/23 08:23:55;;;;;;;7.95;1.58;;;7.70;99.90;;;7.09;100.00;101909.50;4103824;29;20106;-69
2024/03/23 08:26:00;;;;;;;6.35;1.67;;;7.70;99.90;;;7.21;100.00;101912.13;4103527;29;20554;-69
2024/03/23 08:28:01;;;;;;;9.55;2.28;;;7.80;99.90;;;7.23;100.00;101914.63;4102713;29;20054;-69